createdAt,value
2023-03-17T00:01:26.144Z,62.60
2023-03-17T00:03:55.283Z,62.50
2023-03-17T00:06:29.472Z,61.73
2023-03-17T00:08:58.494Z,62.71
2023-03-17T00:11:32.097Z,62.53
2023-03-17T00:14:00.219Z,62.58
2023-03-17T00:16:30.549Z,62.57
2023-03-17T00:18:58.930Z,62.27
2023-03-17T00:21:30.937Z,62.88
2023-03-17T00:24:00.188Z,63.42
2023-03-17T00:26:31.609Z,63.18
2023-03-17T00:28:59.676Z,64.08
2023-03-17T00:31:30.991Z,63.16
2023-03-17T00:33:59.253Z,63.50
2023-03-17T00:36:31.966Z,63.51
2023-03-17T00:39:01.613Z,64.22
2023-03-17T00:41:29.759Z,63.80
2023-03-17T00:43:58.652Z,64.56
2023-03-17T00:46:35.532Z,64.42
2023-03-17T00:49:05.345Z,64.84
2023-03-17T00:51:34.910Z,63.58
2023-03-17T00:54:03.074Z,63.77
2023-03-17T00:56:31.201Z,63.58
2023-03-17T00:58:59.478Z,64.15
2023-03-17T01:01:28.043Z,63.87
2023-03-17T01:03:56.645Z,63.79
2023-03-17T01:06:24.824Z,63.95
2023-03-17T01:08:54.585Z,63.18
2023-03-17T01:11:22.859Z,63.43
2023-03-17T01:13:51.415Z,63.41
2023-03-17T01:16:20.083Z,63.56
2023-03-17T01:18:48.523Z,63.40
2023-03-17T01:21:17.084Z,63.18
2023-03-17T01:23:45.348Z,63.05
2023-03-17T01:26:26.045Z,63.04
2023-03-17T01:28:54.855Z,62.33
2023-03-17T01:31:23.547Z,62.27
2023-03-17T01:33:53.058Z,62.48
2023-03-17T01:36:22.320Z,61.52
2023-03-17T01:38:51.133Z,62.32
2023-03-17T01:41:20.833Z,62.45
2023-03-17T01:44:17.364Z,61.97
2023-03-17T01:46:49.306Z,61.13
2023-03-17T01:49:23.979Z,60.72
2023-03-17T01:52:01.839Z,61.00
2023-03-17T01:54:35.921Z,60.52
2023-03-17T01:57:10.722Z,60.59
2023-03-17T02:00:05.372Z,60.89
2023-03-17T02:02:37.838Z,60.03
2023-03-17T02:05:09.326Z,59.82
2023-03-17T02:07:38.636Z,59.87
2023-03-17T02:10:08.977Z,59.51
2023-03-17T02:12:38.181Z,59.18
2023-03-17T02:15:09.040Z,59.01
2023-03-17T02:17:37.180Z,59.45
2023-03-17T02:20:44.697Z,58.61
2023-03-17T02:23:17.020Z,58.71
2023-03-17T02:25:47.256Z,58.84
2023-03-17T02:28:19.771Z,58.45
2023-03-17T02:30:49.434Z,58.54
2023-03-17T02:33:17.986Z,59.31
2023-03-17T02:35:46.980Z,59.28
2023-03-17T02:38:17.474Z,59.16
2023-03-17T02:40:45.749Z,59.51
2023-03-17T02:43:14.163Z,58.99
2023-03-17T02:45:42.505Z,59.52
2023-03-17T02:48:12.164Z,59.53
2023-03-17T02:50:40.753Z,60.12
2023-03-17T02:53:09.400Z,59.76
2023-03-17T02:55:38.984Z,60.50
2023-03-17T02:58:07.582Z,61.21
2023-03-17T03:00:36.195Z,61.49
2023-03-17T03:03:04.533Z,61.43
2023-03-17T03:05:33.265Z,61.90
2023-03-17T03:08:01.647Z,62.03
2023-03-17T03:10:31.112Z,61.82
2023-03-17T03:13:01.782Z,62.34
2023-03-17T03:15:29.893Z,63.21
2023-03-17T03:17:58.197Z,63.44
2023-03-17T03:20:26.459Z,63.16
2023-03-17T03:22:54.798Z,63.38
2023-03-17T03:25:24.046Z,64.30
2023-03-17T03:27:52.471Z,64.19
2023-03-17T03:30:22.246Z,64.63
2023-03-17T03:32:50.590Z,65.30
2023-03-17T03:35:18.926Z,65.07
2023-03-17T03:37:47.108Z,65.97
2023-03-17T03:40:15.694Z,66.11
2023-03-17T03:42:44.233Z,66.68
2023-03-17T03:45:12.727Z,66.71
2023-03-17T03:48:16.377Z,67.59
2023-03-17T03:50:35.305Z,68.06
2023-03-17T03:53:03.409Z,68.38
2023-03-17T03:55:31.734Z,68.42
2023-03-17T03:57:59.945Z,68.45
2023-03-17T04:00:28.916Z,68.48
2023-03-17T04:02:58.621Z,68.92
2023-03-17T04:05:26.827Z,69.32
2023-03-17T04:07:54.966Z,68.63
2023-03-17T04:10:23.939Z,67.99
2023-03-17T04:12:53.681Z,68.73
2023-03-17T04:15:21.889Z,68.44
2023-03-17T04:17:50.167Z,68.79
2023-03-17T04:20:20.210Z,68.38
2023-03-17T04:22:48.289Z,68.08
2023-03-17T04:25:17.247Z,67.55
2023-03-17T04:27:47.212Z,68.29
2023-03-17T04:30:17.092Z,68.63
2023-03-17T04:32:46.513Z,67.59
2023-03-17T04:35:15.974Z,67.81
2023-03-17T04:37:45.879Z,67.18
2023-03-17T04:40:15.522Z,66.88
2023-03-17T04:42:44.676Z,67.79
2023-03-17T04:45:15.141Z,66.67
2023-03-17T04:47:43.474Z,67.45
2023-03-17T04:50:12.945Z,66.73
2023-03-17T04:52:41.773Z,66.74
2023-03-17T04:55:12.709Z,66.11
2023-03-17T04:57:41.146Z,65.59
2023-03-17T05:00:12.025Z,65.67
2023-03-17T05:02:40.262Z,65.35
2023-03-17T05:05:09.222Z,65.45
2023-03-17T05:07:37.786Z,65.28
2023-03-17T05:10:07.491Z,64.36
2023-03-17T05:12:38.525Z,65.18
2023-03-17T05:15:07.562Z,64.68
2023-03-17T05:17:35.878Z,63.89
2023-03-17T05:20:04.382Z,64.45
2023-03-17T05:22:33.148Z,63.86
2023-03-17T05:25:07.241Z,63.40
2023-03-17T05:27:36.149Z,62.55
2023-03-17T05:30:07.379Z,63.10
2023-03-17T05:32:35.940Z,63.23
2023-03-17T05:35:04.252Z,63.19
2023-03-17T05:37:32.275Z,62.96
2023-03-17T05:40:00.489Z,63.11
2023-03-17T05:42:28.562Z,62.47
2023-03-17T05:44:56.991Z,62.52
2023-03-17T05:47:27.268Z,62.74
2023-03-17T05:49:56.164Z,62.68
2023-03-17T05:52:24.383Z,62.52
2023-03-17T05:54:53.631Z,62.54
2023-03-17T05:57:22.173Z,62.07
2023-03-17T05:59:50.874Z,62.15
2023-03-17T06:02:19.278Z,62.38
2023-03-17T06:04:48.951Z,61.92
2023-03-17T06:07:17.756Z,61.53
2023-03-17T06:09:47.952Z,62.18
2023-03-17T06:12:16.455Z,61.84
2023-03-17T06:14:44.554Z,62.08
2023-03-17T06:17:13.813Z,62.25
2023-03-17T06:19:42.699Z,61.88
2023-03-17T06:22:13.951Z,61.88
2023-03-17T06:24:42.146Z,61.83
2023-03-17T06:27:11.070Z,62.19
2023-03-17T06:29:39.568Z,61.65
2023-03-17T06:32:19.786Z,62.20
2023-03-17T06:34:48.699Z,61.76
2023-03-17T06:37:18.389Z,61.67
2023-03-17T06:39:48.150Z,61.67
2023-03-17T06:42:16.630Z,62.04
2023-03-17T06:44:44.845Z,62.08
2023-03-17T06:47:13.562Z,62.03
2023-03-17T06:49:41.859Z,61.55
2023-03-17T06:52:10.508Z,61.62
2023-03-17T06:54:41.360Z,61.31
2023-03-17T06:57:10.027Z,61.55
2023-03-17T06:59:38.390Z,61.36
2023-03-17T07:02:06.571Z,61.29
2023-03-17T07:04:38.062Z,60.80
2023-03-17T07:07:06.670Z,61.35
2023-03-17T07:09:37.348Z,61.39
2023-03-17T07:12:10.958Z,61.30
2023-03-17T07:14:39.323Z,61.16
2023-03-17T07:17:08.083Z,61.10
2023-03-17T07:19:36.402Z,60.58
2023-03-17T07:22:05.040Z,60.93
2023-03-17T07:24:33.411Z,60.69
2023-03-17T07:27:01.989Z,61.03
2023-03-17T07:29:33.977Z,61.11
2023-03-17T07:32:05.477Z,61.59
2023-03-17T07:34:33.731Z,61.60
2023-03-17T07:37:01.959Z,60.97
2023-03-17T07:39:30.426Z,61.41
2023-03-17T07:42:01.501Z,62.00
2023-03-17T07:44:33.409Z,61.93
2023-03-17T07:47:01.549Z,61.87
2023-03-17T07:49:40.710Z,61.90
2023-03-17T07:52:11.556Z,62.10
2023-03-17T07:54:43.000Z,62.19
2023-03-17T07:57:13.150Z,62.66
2023-03-17T07:59:42.971Z,62.25
2023-03-17T08:02:16.958Z,62.44
2023-03-17T08:04:46.111Z,61.92
2023-03-17T08:07:15.806Z,62.38
2023-03-17T08:09:44.070Z,62.03
2023-03-17T08:12:27.174Z,62.78
2023-03-17T08:14:56.795Z,63.41
2023-03-17T08:17:27.602Z,62.96
2023-03-17T08:19:56.104Z,63.07
2023-03-17T08:22:25.025Z,63.35
2023-03-17T08:24:53.714Z,63.71
2023-03-17T08:27:27.439Z,62.88
2023-03-17T08:29:57.015Z,63.24
2023-03-17T08:32:25.409Z,62.82
2023-03-17T08:34:55.321Z,62.67
2023-03-17T08:37:24.750Z,62.79
2023-03-17T08:39:52.939Z,61.73
2023-03-17T08:42:21.751Z,60.94
2023-03-17T08:44:50.270Z,61.30
2023-03-17T08:47:20.029Z,60.47
2023-03-17T08:49:48.369Z,60.31
2023-03-17T08:52:18.086Z,60.41
2023-03-17T08:54:47.209Z,59.83
2023-03-17T08:57:16.204Z,60.38
2023-03-17T08:59:44.329Z,59.51
2023-03-17T09:02:13.236Z,59.17
2023-03-17T09:04:43.473Z,59.69
2023-03-17T09:07:13.159Z,59.62
2023-03-17T09:09:42.476Z,59.38
2023-03-17T09:12:12.147Z,60.61
2023-03-17T09:14:44.364Z,60.74
2023-03-17T09:17:14.618Z,60.67
2023-03-17T09:19:44.807Z,60.84
2023-03-17T09:22:14.693Z,61.07
2023-03-17T09:24:43.013Z,61.22
2023-03-17T09:27:11.404Z,61.90
2023-03-17T09:29:40.393Z,62.14
2023-03-17T09:32:09.652Z,61.50
2023-03-17T09:34:38.682Z,62.65
2023-03-17T09:37:10.043Z,62.70
2023-03-17T09:39:39.059Z,62.35
2023-03-17T09:42:21.444Z,62.04
2023-03-17T09:45:03.254Z,61.71
2023-03-17T09:47:56.924Z,62.09
2023-03-17T09:50:29.634Z,62.29
2023-03-17T09:53:03.933Z,61.60
2023-03-17T09:55:35.439Z,61.53
2023-03-17T09:58:05.063Z,61.45
2023-03-17T10:00:34.813Z,61.88
2023-03-17T10:03:03.817Z,61.01
2023-03-17T10:05:36.178Z,61.57
2023-03-17T10:08:29.545Z,62.07
2023-03-17T10:11:09.748Z,60.89
2023-03-17T10:13:52.917Z,60.51
2023-03-17T10:16:24.382Z,60.11
2023-03-17T10:18:56.986Z,60.66
2023-03-17T10:21:30.591Z,60.60
2023-03-17T10:24:02.040Z,59.61
2023-03-17T10:26:35.388Z,60.04
2023-03-17T10:29:05.053Z,59.23
2023-03-17T10:31:35.659Z,59.14
2023-03-17T10:34:15.289Z,58.68
2023-03-17T10:36:47.061Z,58.01
2023-03-17T10:39:20.018Z,57.37
2023-03-17T10:41:55.836Z,57.86
2023-03-17T10:44:42.235Z,57.45
2023-03-17T10:47:31.800Z,57.10
2023-03-17T10:50:03.712Z,57.09
2023-03-17T10:52:35.220Z,57.18
2023-03-17T10:55:09.273Z,57.06
2023-03-17T10:57:39.260Z,56.99
2023-03-17T11:00:19.067Z,57.63
2023-03-17T11:03:12.465Z,58.08
2023-03-17T11:05:40.973Z,57.85
2023-03-17T11:08:12.714Z,58.28
2023-03-17T11:10:42.989Z,59.24
2023-03-17T11:13:17.531Z,58.81
2023-03-17T11:15:51.245Z,60.28
2023-03-17T11:18:22.877Z,58.96
2023-03-17T11:21:01.397Z,59.69
2023-03-17T11:23:46.347Z,59.29
2023-03-17T11:26:39.784Z,60.40
2023-03-17T11:29:39.616Z,60.09
2023-03-17T11:32:22.657Z,60.69
2023-03-17T11:35:04.745Z,61.77
2023-03-17T11:37:56.776Z,62.03
2023-03-17T11:40:33.292Z,62.95
2023-03-17T11:43:23.490Z,63.18
2023-03-17T11:45:55.983Z,63.90
2023-03-17T11:48:35.400Z,64.38
2023-03-17T11:51:11.317Z,64.28
2023-03-17T11:53:58.224Z,64.38
2023-03-17T11:56:35.915Z,64.96
2023-03-17T11:59:12.636Z,65.07
2023-03-17T12:01:50.073Z,65.82
2023-03-17T12:04:26.718Z,67.24
2023-03-17T12:07:02.000Z,67.17
2023-03-17T12:09:36.208Z,66.65
2023-03-17T12:12:06.951Z,67.72
2023-03-17T12:14:41.612Z,67.71
2023-03-17T12:17:18.618Z,68.46
2023-03-17T12:20:00.189Z,68.26
2023-03-17T12:22:32.984Z,68.59
2023-03-17T12:25:11.388Z,68.91
2023-03-17T12:27:45.553Z,68.81
2023-03-17T12:30:25.440Z,69.78
2023-03-17T12:33:00.391Z,69.30
2023-03-17T12:35:32.344Z,69.95
2023-03-17T12:38:03.140Z,69.65
2023-03-17T12:40:36.178Z,70.91
2023-03-17T12:43:30.925Z,69.95
2023-03-17T12:46:30.935Z,70.91
2023-03-17T12:49:19.132Z,70.24
2023-03-17T12:51:59.680Z,70.35
2023-03-17T12:54:30.811Z,70.85
2023-03-17T12:57:04.414Z,70.49
2023-03-17T12:59:34.373Z,71.55
2023-03-17T13:02:17.765Z,70.60
2023-03-17T13:04:58.070Z,71.16
2023-03-17T13:07:43.269Z,71.48
2023-03-17T13:10:37.426Z,71.26
2023-03-17T13:13:13.485Z,71.91
2023-03-17T13:16:27.098Z,71.48
2023-03-17T13:19:15.906Z,72.69
2023-03-17T13:21:50.572Z,72.14
2023-03-17T13:24:41.988Z,72.30
2023-03-17T13:27:13.435Z,72.65
2023-03-17T13:29:48.883Z,72.13
2023-03-17T13:32:40.890Z,72.58
2023-03-17T13:35:37.876Z,72.90
2023-03-17T13:38:42.913Z,72.75
2023-03-17T13:42:01.084Z,71.97
2023-03-17T13:44:47.661Z,71.84
2023-03-17T13:47:32.910Z,72.65
2023-03-17T13:50:07.694Z,71.65
2023-03-17T13:52:41.983Z,72.35
2023-03-17T13:55:36.436Z,72.37
2023-03-17T13:58:33.308Z,71.83
2023-03-17T14:01:07.533Z,70.88
2023-03-17T14:03:42.515Z,70.65
2023-03-17T14:06:13.566Z,71.09
2023-03-17T14:08:47.177Z,71.01
2023-03-17T14:11:28.362Z,71.51
2023-03-17T14:14:29.563Z,70.94
2023-03-17T14:17:05.333Z,71.77
2023-03-17T14:19:34.345Z,71.09
2023-03-17T14:22:20.367Z,71.58
2023-03-17T14:24:53.455Z,71.32
2023-03-17T14:27:23.990Z,71.36
2023-03-17T14:29:53.790Z,71.27
2023-03-17T14:32:25.399Z,71.44
2023-03-17T14:34:57.942Z,70.44
2023-03-17T14:37:27.017Z,71.52
2023-03-17T14:39:59.260Z,72.84
2023-03-17T14:42:29.335Z,72.66
2023-03-17T14:45:06.704Z,74.40
2023-03-17T14:47:39.840Z,74.66
2023-03-17T14:50:17.464Z,75.67
2023-03-17T14:52:46.215Z,75.85
2023-03-17T14:55:16.018Z,76.57
2023-03-17T14:57:49.442Z,77.13
2023-03-17T15:00:34.110Z,76.14
2023-03-17T15:03:05.330Z,77.86
2023-03-17T15:05:45.454Z,77.67
2023-03-17T15:08:50.870Z,78.34
2023-03-17T15:11:48.936Z,78.02
2023-03-17T15:14:21.452Z,79.38
2023-03-17T15:16:53.205Z,80.54
2023-03-17T15:19:25.856Z,81.00
2023-03-17T15:22:00.469Z,81.76
2023-03-17T15:24:44.177Z,81.73
2023-03-17T15:27:17.483Z,81.69
2023-03-17T15:29:45.749Z,82.66
2023-03-17T15:32:19.337Z,82.25
2023-03-17T15:34:48.434Z,82.88
2023-03-17T15:37:18.213Z,83.16
2023-03-17T15:39:48.958Z,83.17
2023-03-17T15:42:40.164Z,83.19
2023-03-17T15:45:08.945Z,84.00
2023-03-17T15:47:40.114Z,83.16
2023-03-17T15:50:16.895Z,83.29
2023-03-17T15:52:46.366Z,83.33
2023-03-17T15:55:21.830Z,83.55
2023-03-17T15:57:55.140Z,84.40
2023-03-17T16:00:27.217Z,84.32
2023-03-17T16:03:00.103Z,85.19
2023-03-17T16:05:32.176Z,85.33
2023-03-17T16:08:00.721Z,85.93
2023-03-17T16:10:31.902Z,86.52
2023-03-17T16:13:00.612Z,86.42
2023-03-17T16:15:32.231Z,87.11
2023-03-17T16:18:04.238Z,86.74
2023-03-17T16:20:38.480Z,86.61
2023-03-17T16:23:18.626Z,86.34
2023-03-17T16:25:47.529Z,86.91
2023-03-17T16:28:29.044Z,87.29
2023-03-17T16:30:59.179Z,86.43
2023-03-17T16:33:39.504Z,86.77
2023-03-17T16:36:08.285Z,87.52
2023-03-17T16:38:36.909Z,88.67
2023-03-17T16:41:09.642Z,88.87
2023-03-17T16:43:43.279Z,89.27
2023-03-17T16:46:12.856Z,90.72
2023-03-17T16:48:42.721Z,91.35
2023-03-17T16:51:10.808Z,91.42
2023-03-17T16:53:39.021Z,91.95
2023-03-17T16:56:14.187Z,92.33
2023-03-17T16:58:42.469Z,91.76
2023-03-17T17:01:18.030Z,92.26
2023-03-17T17:03:47.805Z,93.23
2023-03-17T17:06:16.676Z,92.49
2023-03-17T17:08:45.415Z,92.91
2023-03-17T17:11:14.328Z,93.09
2023-03-17T17:13:43.026Z,93.00
2023-03-17T17:16:21.736Z,93.22
2023-03-17T17:18:52.113Z,93.98
2023-03-17T17:21:20.214Z,93.31
2023-03-17T17:23:48.487Z,93.14
2023-03-17T17:26:17.194Z,93.37
2023-03-17T17:28:45.291Z,93.66
2023-03-17T17:31:13.498Z,93.35
2023-03-17T17:33:41.934Z,93.27
2023-03-17T17:36:16.901Z,93.36
2023-03-17T17:38:45.865Z,94.44
2023-03-17T17:41:17.131Z,93.74
2023-03-17T17:43:46.275Z,94.44
2023-03-17T17:46:18.437Z,94.78
2023-03-17T17:48:49.370Z,93.88
2023-03-17T17:51:19.024Z,94.61
2023-03-17T17:53:47.156Z,93.60
2023-03-17T17:56:16.645Z,94.34
2023-03-17T17:58:45.579Z,93.86
2023-03-17T18:01:19.726Z,93.24
2023-03-17T18:03:47.968Z,93.58
2023-03-17T18:06:17.448Z,92.71
2023-03-17T18:08:47.515Z,93.21
2023-03-17T18:11:15.576Z,92.96
2023-03-17T18:13:43.690Z,92.87
2023-03-17T18:16:20.998Z,92.39
2023-03-17T18:18:49.091Z,92.43
2023-03-17T18:21:17.754Z,93.55
2023-03-17T18:23:48.767Z,93.20
2023-03-17T18:26:20.223Z,94.63
2023-03-17T18:28:48.902Z,93.98
2023-03-17T18:31:20.686Z,93.45
2023-03-17T18:33:51.371Z,95.32
2023-03-17T18:36:21.225Z,94.45
2023-03-17T18:38:50.786Z,94.42
2023-03-17T18:41:19.058Z,94.91
2023-03-17T18:43:47.484Z,94.13
2023-03-17T18:46:16.370Z,94.29
2023-03-17T18:48:44.714Z,93.96
2023-03-17T18:51:12.880Z,94.33
2023-03-17T18:53:41.204Z,94.18
2023-03-17T18:56:11.786Z,93.76
2023-03-17T18:58:39.859Z,93.17
2023-03-17T19:01:07.944Z,93.88
2023-03-17T19:03:37.019Z,95.13
2023-03-17T19:06:10.602Z,95.43
2023-03-17T19:08:39.240Z,96.79
2023-03-17T19:11:09.292Z,97.63
2023-03-17T19:13:39.726Z,98.27
2023-03-17T19:16:08.933Z,97.36
2023-03-17T19:18:42.182Z,98.22
2023-03-17T19:21:12.392Z,97.83
2023-03-17T19:23:41.492Z,97.93
2023-03-17T19:26:10.454Z,97.80
2023-03-17T19:28:39.939Z,98.04
2023-03-17T19:31:08.210Z,97.02
2023-03-17T19:33:41.263Z,97.70
2023-03-17T19:36:11.738Z,97.54
2023-03-17T19:38:40.264Z,96.76
2023-03-17T19:41:08.775Z,95.65
2023-03-17T19:43:41.429Z,94.85
2023-03-17T19:46:11.450Z,95.21
2023-03-17T19:48:42.614Z,94.13
2023-03-17T19:51:11.538Z,94.02
2023-03-17T19:53:40.083Z,94.10
2023-03-17T19:56:08.797Z,92.98
2023-03-17T19:58:37.242Z,92.31
2023-03-17T20:01:08.694Z,91.67
2023-03-17T20:03:39.391Z,91.98
2023-03-17T20:06:07.884Z,91.83
2023-03-17T20:08:36.322Z,91.47
2023-03-17T20:11:06.419Z,89.80
2023-03-17T20:13:35.428Z,89.60
2023-03-17T20:16:04.594Z,89.73
2023-03-17T20:18:34.173Z,89.50
2023-03-17T20:21:05.756Z,89.17
2023-03-17T20:23:34.060Z,88.52
2023-03-17T20:26:03.687Z,88.02
2023-03-17T20:28:32.620Z,87.20
2023-03-17T20:31:02.994Z,86.67
2023-03-17T20:33:31.934Z,86.77
2023-03-17T20:36:03.307Z,86.24
2023-03-17T20:38:33.413Z,86.29
2023-03-17T20:41:10.173Z,85.47
2023-03-17T20:43:40.454Z,85.67
2023-03-17T20:46:10.117Z,85.58
2023-03-17T20:48:38.434Z,85.91
2023-03-17T20:51:23.090Z,85.34
2023-03-17T20:53:51.624Z,85.33
2023-03-17T20:56:22.352Z,85.09
2023-03-17T20:58:53.379Z,85.97
2023-03-17T21:01:23.352Z,85.53
2023-03-17T21:03:52.686Z,85.02
2023-03-17T21:06:24.806Z,85.22
2023-03-17T21:08:54.189Z,83.82
2023-03-17T21:11:24.060Z,83.55
2023-03-17T21:13:52.149Z,84.03
2023-03-17T21:16:22.665Z,83.63
2023-03-17T21:18:51.058Z,83.09
2023-03-17T21:21:20.037Z,82.52
2023-03-17T21:23:50.090Z,83.09
2023-03-17T21:26:19.585Z,83.60
2023-03-17T21:28:48.861Z,82.16
2023-03-17T21:31:17.450Z,82.87
2023-03-17T21:33:48.546Z,82.30
2023-03-17T21:36:18.007Z,82.00
2023-03-17T21:38:46.073Z,82.22
2023-03-17T21:41:23.873Z,81.35
2023-03-17T21:43:52.471Z,82.43
2023-03-17T21:46:20.506Z,80.84
2023-03-17T21:48:49.640Z,80.87
2023-03-17T21:51:17.811Z,80.03
2023-03-17T21:53:46.803Z,80.54
2023-03-17T21:56:15.380Z,80.95
2023-03-17T21:58:44.911Z,80.31
2023-03-17T22:01:14.447Z,80.29
2023-03-17T22:03:42.672Z,80.76
2023-03-17T22:06:11.889Z,80.39
2023-03-17T22:08:39.891Z,80.31
2023-03-17T22:11:09.881Z,80.00
2023-03-17T22:13:38.292Z,80.61
2023-03-17T22:16:09.251Z,80.37
2023-03-17T22:18:37.883Z,81.03
2023-03-17T22:21:07.023Z,79.54
2023-03-17T22:23:39.744Z,80.62
2023-03-17T22:26:22.484Z,79.60
2023-03-17T22:28:51.652Z,80.68
2023-03-17T22:31:25.566Z,80.06
2023-03-17T22:33:56.402Z,81.13
2023-03-17T22:36:26.214Z,80.46
2023-03-17T22:38:54.670Z,79.96
2023-03-17T22:41:28.251Z,80.31
2023-03-17T22:43:58.435Z,79.98
2023-03-17T22:46:28.375Z,80.47
2023-03-17T22:48:56.976Z,79.25
2023-03-17T22:51:26.726Z,79.16
2023-03-17T22:53:56.459Z,79.47
2023-03-17T22:56:26.130Z,79.64
2023-03-17T22:58:54.584Z,79.35
2023-03-17T23:01:25.801Z,79.13
2023-03-17T23:03:56.389Z,80.24
2023-03-17T23:06:24.823Z,79.14
2023-03-17T23:08:53.403Z,78.38
2023-03-17T23:11:27.014Z,78.48
2023-03-17T23:13:59.640Z,78.04
2023-03-17T23:16:27.996Z,78.96
2023-03-17T23:18:58.099Z,79.20
2023-03-17T23:21:29.518Z,78.69
2023-03-17T23:23:57.920Z,78.62
2023-03-17T23:26:26.103Z,78.87
2023-03-17T23:28:54.942Z,78.69
2023-03-17T23:31:23.257Z,78.69
2023-03-17T23:33:51.868Z,78.31
2023-03-17T23:36:22.099Z,79.16
2023-03-17T23:39:02.221Z,79.53
2023-03-17T23:41:30.514Z,79.40
2023-03-17T23:44:00.115Z,79.67
2023-03-17T23:46:29.103Z,80.16
2023-03-17T23:48:57.265Z,80.12
2023-03-17T23:51:27.287Z,79.67
2023-03-17T23:53:55.343Z,79.16
2023-03-17T23:56:23.385Z,79.75
2023-03-17T23:58:52.119Z,78.40
